ADDS METAR Data

Data at: 2117 UTC 22 May 2018

METAR for:LHKE (Kecskemet(AB), --, HU)
Text:LHKE 222045Z 13004KT CAVOK 19/14 Q1017 NOSIG RMK BLU
Temperature: 19.0°C ( 66°F)
Dewpoint: 14.0°C ( 57°F) [RH = 73%]
Pressure (altimeter):30.03 inches Hg (1017.0 mb)
Winds:from the SE (130 degrees) at 5 MPH (4 knots; 2.1 m/s)
Visibility:6 or more sm (10+ km)
Ceiling:ceiling and visibility are OK
Clouds:unknown

TAF for:LHKE (Kecskemet(AB), --, HU) issued at 1715 UTC 22 May 2018
Text:TAF LHKE 221715Z 2218/2303 15008KT CAVOK
Forecast period:1800 UTC 22 May 2018 to 0300 UTC 23 May 2018
Forecast type:FROM: standard forecast or significant change
Winds:from the SSE (150 degrees) at 9 MPH (8 knots; 4.1 m/s)
Visibility:6 or more sm (10+ km)
Clouds:missing
Weather:NSW (no significant weather)
Text:PROB30
Forecast period:1800 to 2100 UTC 22 May 2018
Forecast type:TEMPORARY: The following changes expected for less than half the time period
Visibility: 5 sm ( 8 km)
Ceiling:8300 feet AGL
Clouds: scattered clouds at 4000 feet AGL, broken clouds at 8300 feet AGL
Weather:RA SHRA (moderate rain, rain showers)
Text:TEMPO 2218/2221 8000 RA SHRA SCT040TCU BKN083
Forecast period:1800 UTC 22 May 2018 to 0300 UTC 23 May 2018
Forecast type:BECOMING: Conditions expected to become as follows by 2000 UTC 22 May 2018
Winds:from the ESE (120 degrees) at 6 MPH (5 knots; 2.6 m/s)
Visibility:6 or more sm (10+ km)
Clouds:missing
Weather:NSW (no significant weather)